Time;durP1;ratioP1;P1;durP2;ratioP2;P2;SDS_P1;SDS_P2;PMS_P1;PMS_P2;Temp;Humidity;BMP_temperature;BMP_pressure;BME280_temperature;BME280_humidity;BME280_pressure;Samples;Min_cycle;Max_cycle;Signal;HPM_P1;HPM_P2
2021/12/19 00:02:07;;;;;;;30.00;27.87;;;;;;;8.34;91.45;103542.53;10478205;28;20684;-82
2021/12/19 00:12:34;;;;;;;29.80;27.67;;;;;;;8.53;90.22;103567.06;10482966;28;20206;-82
2021/12/19 00:17:36;;;;;;;29.00;27.10;;;;;;;7.06;89.62;103318.63;10488719;28;20721;-83
2021/12/19 00:22:38;;;;;;;29.27;27.27;;;;;;;8.45;90.09;103551.22;10479294;28;20217;-83
2021/12/19 00:27:41;;;;;;;28.03;26.17;;;;;;;8.43;90.34;103554.84;10482871;28;20247;-83
2021/12/19 00:32:42;;;;;;;30.90;28.63;;;;;;;8.41;90.29;103548.63;10483925;28;20699;-84
2021/12/19 00:37:44;;;;;;;30.20;28.00;;;;;;;8.15;90.00;103508.25;10473578;28;20226;-82
2021/12/19 00:42:51;;;;;;;29.87;27.90;;;;;;;8.31;90.44;103545.28;10486760;28;20226;-82
2021/12/19 00:47:53;;;;;;;28.57;26.70;;;;;;;8.28;90.47;103550.63;10490867;28;20196;-83
2021/12/19 00:52:54;;;;;;;28.17;26.37;;;;;;;8.27;90.30;103538.22;10485465;28;20215;-83
2021/12/19 00:57:58;;;;;;;24.93;23.53;;;;;;;8.09;90.43;103505.69;10486931;28;20224;-83
2021/12/19 01:03:01;;;;;;;25.63;24.03;;;;;;;8.24;90.28;103530.31;10490946;28;20226;-83
2021/12/19 01:08:04;;;;;;;24.13;22.73;;;;;;;8.18;89.76;103523.31;10487534;28;20194;-83
2021/12/19 01:13:07;;;;;;;22.73;21.53;;;;;;;8.06;89.76;103508.44;10492206;28;20210;-83
2021/12/19 01:18:09;;;;;;;21.93;20.83;;;;;;;8.03;89.85;103508.47;10488651;28;20220;-83
2021/12/19 01:23:12;;;;;;;20.70;19.70;;;;;;;8.12;89.81;103508.31;10486539;28;20210;-83
2021/12/19 01:28:15;;;;;;;21.80;20.60;;;;;;;8.08;89.14;103501.31;10491364;28;20242;-82
2021/12/19 01:33:17;;;;;;;22.10;21.00;;;;;;;8.03;89.33;103508.47;10487780;28;20238;-83
2021/12/19 01:38:19;;;;;;;22.27;20.97;;;;;;;8.03;89.69;103496.97;10484872;28;20611;-82
2021/12/19 01:43:24;;;;;;;22.00;20.70;;;;;;;7.34;89.54;103385.50;10489703;28;20747;-83
2021/12/19 01:48:26;;;;;;;22.30;21.10;;;;;;;7.91;89.83;103479.41;10491335;28;20229;-82
2021/12/19 01:53:29;;;;;;;21.40;20.20;;;;;;;7.70;89.37;103438.09;10482599;28;20689;-82
2021/12/19 01:58:32;;;;;;;22.03;20.77;;;;;;;8.01;90.24;103490.78;10487788;28;20775;-82
2021/12/19 02:03:36;;;;;;;22.50;21.30;;;;;;;7.73;90.71;103430.94;10486155;28;20220;-82
2021/12/19 02:08:37;;;;;;;23.87;22.27;;;;;;;8.04;91.27;103477.41;10481020;28;20268;-82
2021/12/19 02:13:41;;;;;;;24.00;22.60;;;;;;;8.03;90.80;103470.34;10490575;28;20209;-82
2021/12/19 02:18:42;;;;;;;24.67;23.17;;;;;;;8.05;91.04;103473.84;10487499;28;20261;-82
2021/12/19 02:23:45;;;;;;;25.83;24.17;;;;;;;7.86;91.27;103439.59;10482326;28;20214;-83
2021/12/19 02:28:47;;;;;;;26.80;25.10;;;;;;;7.93;90.96;103440.34;10485864;28;20231;-82
2021/12/19 02:34:00;;;;;;;26.70;24.93;;;;;;;7.85;91.86;103432.50;10483718;28;20742;-82
2021/12/19 02:39:20;;;;;;;27.00;25.20;;;;;;;8.04;91.47;103446.34;10487801;28;20251;-82
2021/12/19 02:49:43;;;;;;;26.47;24.77;;;;;;;7.92;92.07;103407.53;10464308;28;20210;-83
2021/12/19 02:54:46;;;;;;;26.43;24.93;;;;;;;7.06;91.59;103248.69;10491210;28;20200;-82
2021/12/19 02:59:48;;;;;;;27.07;25.27;;;;;;;8.10;92.87;103422.28;10487861;28;20276;-83
2021/12/19 03:04:54;;;;;;;25.33;23.87;;;;;;;8.19;92.86;103424.78;10484236;28;20222;-84
2021/12/19 03:10:15;;;;;;;25.50;24.00;;;;;;;8.23;92.66;103422.03;10486624;28;20219;-83
2021/12/19 03:20:38;;;;;;;26.73;25.00;;;;;;;8.29;92.81;103404.16;10491926;28;20293;-80
2021/12/19 03:25:42;;;;;;;25.67;24.17;;;;;;;8.30;92.28;103397.06;10479208;28;20209;-79
2021/12/19 03:30:45;;;;;;;24.00;22.60;;;;;;;8.28;92.63;103381.09;10481059;28;20231;-79
2021/12/19 03:35:48;;;;;;;23.00;21.80;;;;;;;8.28;92.53;103366.91;10481590;28;20219;-80
2021/12/19 03:41:06;;;;;;;22.67;21.33;;;;;;;8.22;92.55;103351.94;10481220;28;20199;-82
2021/12/19 03:46:08;;;;;;;22.20;21.20;;;;;;;8.06;93.98;103321.22;10477803;28;20236;-79
2021/12/19 03:51:10;;;;;;;22.73;21.47;;;;;;;8.21;93.89;103333.34;10478105;28;20866;-80
2021/12/19 03:56:13;;;;;;;23.13;21.73;;;;;;;8.07;93.91;103315.00;10472663;28;20224;-80
2021/12/19 04:01:15;;;;;;;22.73;21.53;;;;;;;8.39;94.43;103355.13;10475565;28;20224;-79
2021/12/19 04:06:16;;;;;;;22.83;21.63;;;;;;;7.89;94.41;103255.06;10480951;28;20564;-79
2021/12/19 04:11:20;;;;;;;23.73;22.43;;;;;;;8.26;94.09;103315.50;10482756;28;20213;-80
2021/12/19 04:16:21;;;;;;;21.40;20.40;;;;;;;8.13;93.42;103297.09;10481409;28;20260;-80
2021/12/19 04:21:23;;;;;;;20.33;19.43;;;;;;;8.39;94.15;103331.16;10482702;28;20199;-80
2021/12/19 04:26:26;;;;;;;21.00;20.10;;;;;;;8.39;93.17;103328.50;10485257;28;20772;-80
2021/12/19 04:31:28;;;;;;;21.47;20.47;;;;;;;8.39;94.33;103312.50;10483950;28;20235;-79
2021/12/19 04:36:34;;;;;;;21.83;20.73;;;;;;;8.30;93.50;103310.03;10489421;28;20230;-79
2021/12/19 04:52:40;;;;;;;21.63;20.43;;;;;;;8.28;93.70;103279.06;10485549;28;20207;-79
2021/12/19 04:57:49;;;;;;;23.03;21.70;;;;;;;8.11;94.36;103247.47;10486633;28;20227;-79
2021/12/19 05:02:55;;;;;;;22.57;21.17;;;;;;;8.44;94.91;103298.25;10481506;28;20392;-79
2021/12/19 05:18:50;;;;;;;22.80;21.67;;;;;;;8.52;94.07;103298.97;10374193;28;20300;-80
2021/12/19 05:24:16;;;;;;;22.10;21.10;;;;;;;8.55;94.79;103294.44;10482134;28;20659;-80
2021/12/19 05:29:16;;;;;;;22.07;20.97;;;;;;;8.54;94.77;103302.47;10482813;28;20324;-79
2021/12/19 05:34:18;;;;;;;21.00;20.00;;;;;;;8.58;93.63;103302.34;10478149;28;20230;-80
2021/12/19 05:50:00;;;;;;;22.00;20.60;;;;;;;8.64;94.17;103301.31;10477560;28;20206;-79
2021/12/19 05:55:02;;;;;;;22.07;20.97;;;;;;;8.47;93.77;103267.09;10479158;28;20210;-80
2021/12/19 06:00:08;;;;;;;21.63;20.63;;;;;;;8.66;93.98;103285.31;10487283;28;20537;-80
2021/12/19 06:05:12;;;;;;;21.03;19.90;;;;;;;8.68;93.68;103288.81;10435942;28;20238;-80
2021/12/19 06:10:14;;;;;;;21.23;20.20;;;;;;;8.68;93.98;103283.47;10438463;28;20738;-79
2021/12/19 06:15:18;;;;;;;21.80;20.80;;;;;;;8.21;94.65;103189.59;10438979;28;20217;-80
2021/12/19 06:20:20;;;;;;;22.13;20.93;;;;;;;8.71;94.45;103270.97;10434540;28;20232;-80
2021/12/19 06:25:21;;;;;;;21.37;20.27;;;;;;;8.32;94.24;103209.72;10443671;28;20938;-79
2021/12/19 06:30:24;;;;;;;20.63;19.53;;;;;;;8.50;94.59;103236.88;10438399;28;20231;-79
2021/12/19 06:35:29;;;;;;;19.60;18.70;;;;;;;8.68;94.58;103263.06;10413592;28;20192;-80
2021/12/19 06:40:31;;;;;;;20.50;19.50;;;;;;;8.68;93.67;103268.41;10417779;28;20214;-80
2021/12/19 06:45:35;;;;;;;20.13;19.23;;;;;;;8.67;94.17;103255.09;10413345;28;20208;-80
2021/12/19 06:50:36;;;;;;;19.97;18.97;;;;;;;8.53;94.69;103232.34;10411700;28;20203;-80
2021/12/19 06:55:38;;;;;;;21.63;20.63;;;;;;;8.69;94.24;103243.47;10420692;28;20358;-80
2021/12/19 07:00:41;;;;;;;171.37;108.87;;;;;;;8.47;95.16;103205.84;10417248;28;20222;-80
2021/12/19 07:05:44;;;;;;;20.80;19.73;;;;;;;8.58;95.22;103213.56;10411467;28;20222;-79
2021/12/19 07:10:45;;;;;;;21.37;20.27;;;;;;;8.75;94.35;103229.13;10415603;28;20200;-80
2021/12/19 07:15:49;;;;;;;20.83;19.83;;;;;;;8.71;94.66;103217.69;10415348;28;20318;-81
2021/12/19 07:20:51;;;;;;;21.37;20.43;;;;;;;8.79;95.12;103232.59;10412848;28;20207;-79
2021/12/19 07:25:52;;;;;;;20.77;19.77;;;;;;;8.76;95.17;103231.78;10415601;28;20209;-81
2021/12/19 07:30:56;;;;;;;21.03;20.03;;;;;;;8.75;94.16;103226.47;10422299;28;20223;-79
2021/12/19 07:36:00;;;;;;;21.63;20.63;;;;;;;8.68;95.01;103209.78;10481712;28;20638;-80
2021/12/19 07:41:02;;;;;;;20.47;19.47;;;;;;;8.73;95.23;103226.50;10475751;28;20596;-80
2021/12/19 07:46:05;;;;;;;20.17;19.37;;;;;;;8.75;94.07;103221.13;10469441;28;20254;-80
2021/12/19 07:51:07;;;;;;;20.40;19.50;;;;;;;8.19;93.94;103134.59;10467742;28;20216;-81
2021/12/19 07:56:09;;;;;;;20.33;19.40;;;;;;;8.75;94.29;103235.34;10471024;28;20233;-79
2021/12/19 08:01:12;;;;;;;19.67;18.87;;;;;;;8.64;93.89;103208.09;10469607;28;20242;-80
2021/12/19 08:06:14;;;;;;;19.63;18.83;;;;;;;8.75;94.46;103219.34;10467507;28;20217;-80
2021/12/19 08:16:37;;;;;;;19.47;18.67;;;;;;;8.75;94.26;103224.66;10477475;28;20606;-80
2021/12/19 08:21:39;;;;;;;20.33;19.43;;;;;;;8.76;94.86;103214.91;10469814;28;20752;-80
2021/12/19 08:26:42;;;;;;;241.47;199.17;;;;;;;8.79;94.94;103203.28;10463506;28;20312;-80
2021/12/19 08:31:46;;;;;;;479.97;256.33;;;;;;;8.81;94.32;103202.31;10469163;28;20245;-80
2021/12/19 08:36:47;;;;;;;19.70;18.90;;;;;;;8.53;94.13;103155.09;10471894;28;20250;-80
2021/12/19 08:41:49;;;;;;;20.77;19.87;;;;;;;8.86;95.33;103196.88;10473740;28;20218;-79
2021/12/19 08:46:52;;;;;;;21.57;20.60;;;;;;;8.89;94.27;103204.78;10469069;28;20211;-80
2021/12/19 08:51:54;;;;;;;20.47;19.57;;;;;;;8.91;95.18;103214.50;10469205;28;20215;-79
2021/12/19 08:56:56;;;;;;;873.53;524.13;;;;;;;8.66;94.69;103166.28;10467791;28;20226;-80
2021/12/19 09:02:01;;;;;;;20.43;19.53;;;;;;;8.96;94.64;103195.72;10465862;28;20643;-80
2021/12/19 09:07:03;;;;;;;20.00;19.20;;;;;;;8.64;94.65;103145.94;10478105;28;20195;-79
2021/12/19 09:12:05;;;;;;;19.60;18.80;;;;;;;9.00;94.91;103192.06;10472836;28;20206;-79
2021/12/19 09:17:08;;;;;;;762.57;441.03;;;;;;;8.89;94.93;103172.81;10476995;28;20635;-79
2021/12/19 09:22:10;;;;;;;20.40;19.40;;;;;;;9.04;95.35;103187.50;10473720;28;20206;-79
2021/12/19 09:27:11;;;;;;;19.50;18.70;;;;;;;9.04;95.07;103207.06;10471997;28;20227;-79
2021/12/19 09:32:14;;;;;;;20.40;19.60;;;;;;;9.08;95.00;103195.41;10472870;28;20746;-79
2021/12/19 09:37:16;;;;;;;20.50;19.60;;;;;;;8.92;94.79;103165.59;10480304;28;20250;-79
2021/12/19 09:42:20;;;;;;;20.23;19.33;;;;;;;8.79;94.59;103128.69;10471854;28;20212;-80
2021/12/19 09:47:23;;;;;;;21.07;20.07;;;;;;;8.96;95.16;103151.28;10475006;28;20215;-79
2021/12/19 09:52:27;;;;;;;20.63;19.73;;;;;;;9.18;95.10;103187.16;10473652;28;20220;-79
2021/12/19 09:57:28;;;;;;;20.00;19.17;;;;;;;9.21;95.38;103184.38;10466489;28;21160;-79
2021/12/19 10:02:31;;;;;;;20.03;19.13;;;;;;;9.19;94.92;103184.41;10468368;28;20318;-80
2021/12/19 10:07:33;;;;;;;20.63;19.77;;;;;;;9.27;95.01;103181.56;10469270;28;20548;-79
2021/12/19 10:12:48;;;;;;;19.43;18.73;;;;;;;9.32;95.03;103177.84;10464737;28;20216;-79
2021/12/19 10:18:02;;;;;;;19.47;18.67;;;;;;;9.37;95.27;103180.38;10463748;28;20218;-80
2021/12/19 10:23:10;;;;;;;20.23;19.33;;;;;;;9.41;94.81;103168.69;10472718;28;20243;-80
2021/12/19 10:28:12;;;;;;;20.13;19.27;;;;;;;8.97;95.01;103090.88;10465694;28;20240;-79
2021/12/19 10:33:17;;;;;;;19.47;18.63;;;;;;;9.41;94.40;103157.16;10472839;28;20231;-79
2021/12/19 10:38:22;;;;;;;19.43;18.50;;;;;;;9.24;94.73;103129.19;10471993;28;20727;-79
2021/12/19 10:43:27;;;;;;;20.23;19.33;;;;;;;9.49;94.37;103164.03;10472249;28;20230;-80
2021/12/19 10:48:32;;;;;;;19.17;18.37;;;;;;;9.48;94.08;103143.59;10475489;28;21075;-80
2021/12/19 10:53:40;;;;;;;33.58;32.17;;;;;;;9.73;93.80;103129.50;10474831;28;21019;-79
2021/12/19 10:58:45;;;;;;;21.23;20.33;;;;;;;9.65;93.85;103121.75;10466368;28;20858;-80
2021/12/19 11:03:57;;;;;;;19.70;18.90;;;;;;;9.65;93.55;103113.72;10467438;28;20294;-80
2021/12/19 11:09:01;;;;;;;20.50;19.40;;;;;;;9.53;93.15;103077.63;10471385;28;20207;-80
2021/12/19 11:14:04;;;;;;;20.23;19.40;;;;;;;9.68;93.43;103102.09;10467243;28;20222;-80
2021/12/19 11:19:07;;;;;;;19.87;18.97;;;;;;;9.71;92.96;103096.66;10466219;28;20312;-80
2021/12/19 11:24:11;;;;;;;19.73;18.83;;;;;;;8.26;92.89;102842.47;10467380;28;20211;-80
2021/12/19 11:29:14;;;;;;;20.47;19.37;;;;;;;9.71;93.00;103081.50;10470106;28;20246;-80
2021/12/19 11:34:24;;;;;;;23.07;21.70;;;;;;;9.58;93.11;103058.81;10471737;28;20580;-80
2021/12/19 11:39:31;;;;;;;21.20;19.90;;;;;;;9.73;92.71;103062.78;10470734;28;20699;-80
2021/12/19 11:44:46;;;;;;;22.17;20.90;;;;;;;9.75;93.05;103063.59;10468419;28;20573;-79
2021/12/19 11:50:10;;;;;;;23.23;21.63;;;;;;;9.73;92.35;103055.66;10473646;28;20201;-80
2021/12/19 11:55:26;;;;;;;23.03;21.43;;;;;;;9.64;92.42;103039.94;10467557;28;20217;-79
2021/12/19 12:00:29;;;;;;;22.53;20.80;;;;;;;9.72;92.10;103053.06;10463092;28;20236;-79
2021/12/19 12:05:34;;;;;;;22.10;20.37;;;;;;;9.71;92.31;103048.63;10460157;28;20211;-79
2021/12/19 12:11:09;;;;;;;86.20;77.00;;;;;;;9.69;91.95;103039.78;10459534;28;20211;-80
2021/12/19 12:16:44;;;;;;;949.27;539.97;;;;;;;9.66;91.46;103034.56;10465333;28;20210;-80
2021/12/19 12:21:49;;;;;;;958.70;548.30;;;;;;;9.65;91.74;103017.66;10467730;28;20310;-80
2021/12/19 12:26:57;;;;;;;950.27;536.40;;;;;;;9.54;91.54;102986.00;10470175;28;20228;-80
2021/12/19 12:31:59;;;;;;;21.77;20.30;;;;;;;9.68;90.90;103009.59;10469198;28;20258;-79
2021/12/19 12:37:03;;;;;;;20.97;19.53;;;;;;;9.43;90.80;102963.28;10469330;28;20226;-79
2021/12/19 12:42:10;;;;;;;22.50;20.93;;;;;;;9.68;90.79;103014.03;10472324;28;20362;-80
2021/12/19 12:47:16;;;;;;;992.10;586.90;;;;;;;9.67;90.43;103006.97;10472653;28;20208;-80
2021/12/19 12:52:21;;;;;;;1008.37;611.53;;;;;;;9.56;90.71;102988.63;10477812;28;20234;-80
2021/12/19 12:57:23;;;;;;;20.43;19.17;;;;;;;9.19;89.78;102940.91;10477095;28;20223;-80
2021/12/19 13:02:29;;;;;;;19.77;18.53;;;;;;;9.57;90.39;102995.72;10472281;28;20626;-80
2021/12/19 13:07:32;;;;;;;18.50;17.60;;;;;;;9.25;89.91;102959.38;10478349;28;20207;-80
2021/12/19 13:12:36;;;;;;;19.27;18.37;;;;;;;9.53;90.03;102986.03;10481128;28;20198;-80
2021/12/19 13:17:40;;;;;;;1001.17;598.87;;;;;;;9.31;89.35;102945.88;10471266;28;20237;-80
2021/12/19 13:22:48;;;;;;;1051.20;654.63;;;;;;;9.45;88.99;102982.75;10477833;28;20183;-80
2021/12/19 13:27:53;;;;;;;1054.77;684.37;;;;;;;9.45;89.30;102974.75;10474350;28;20382;-80
2021/12/19 13:32:56;;;;;;;1049.97;672.67;;;;;;;9.29;89.34;102953.06;10472399;28;20227;-80
2021/12/19 13:38:05;;;;;;;18.63;17.60;;;;;;;9.10;88.90;102910.97;10476229;28;20375;-80
2021/12/19 13:43:09;;;;;;;162.67;144.97;;;;;;;9.23;88.76;102926.56;10475565;28;20235;-80
2021/12/19 13:48:15;;;;;;;1089.07;723.30;;;;;;;8.96;88.93;102871.41;10470906;28;20289;-80
2021/12/19 13:53:19;;;;;;;1081.17;700.17;;;;;;;9.52;88.87;102968.31;10473933;28;20607;-79
2021/12/19 13:58:22;;;;;;;1055.50;679.10;;;;;;;9.43;88.56;102942.78;10475175;28;20233;-80
2021/12/19 14:03:42;;;;;;;1080.90;708.87;;;;;;;9.49;89.19;102949.72;10478064;28;20249;-80
2021/12/19 14:08:52;;;;;;;1101.77;738.83;;;;;;;9.49;89.02;102949.72;10471900;28;20678;-80
2021/12/19 14:14:00;;;;;;;1083.93;713.30;;;;;;;9.50;89.02;102940.81;10475631;28;20221;-79
2021/12/19 14:19:14;;;;;;;1076.77;699.63;;;;;;;9.37;88.92;102934.13;10480670;28;20221;-80
2021/12/19 14:24:36;;;;;;;1058.37;668.53;;;;;;;9.49;89.15;102941.72;10474564;28;20655;-79
2021/12/19 14:29:39;;;;;;;1045.97;648.17;;;;;;;9.26;89.53;102892.69;10475490;28;20229;-80
2021/12/19 14:34:47;;;;;;;22.53;20.97;;;;;;;9.53;89.00;102927.34;10480593;28;20223;-80
2021/12/19 14:40:14;;;;;;;22.00;20.00;;;;;;;9.57;88.91;102928.13;10463358;28;20231;-80
2021/12/19 14:45:22;;;;;;;20.27;18.83;;;;;;;9.08;88.92;102850.63;10475207;28;20306;-80
2021/12/19 14:50:27;;;;;;;20.70;19.50;;;;;;;9.36;89.56;102914.56;10476377;28;20317;-79
2021/12/19 14:55:32;;;;;;;1037.80;699.00;;;;;;;9.46;89.17;102916.03;10466031;28;20206;-80
2021/12/19 15:00:36;;;;;;;1055.50;691.60;;;;;;;9.34;89.61;102906.66;10469919;28;20704;-79
2021/12/19 15:05:38;;;;;;;1109.73;737.77;;;;;;;9.43;89.75;102929.47;10469306;28;20573;-79
2021/12/19 15:10:42;;;;;;;19.50;18.53;;;;;;;9.42;89.37;102914.41;10465029;28;20328;-79
2021/12/19 15:15:44;;;;;;;20.40;19.30;;;;;;;9.42;89.56;102919.72;10470185;28;20223;-80
2021/12/19 15:20:46;;;;;;;20.30;19.13;;;;;;;9.43;90.28;102917.94;10465370;28;20246;-80
2021/12/19 15:25:51;;;;;;;20.47;19.30;;;;;;;9.25;90.04;102876.72;10470880;28;20234;-80
2021/12/19 15:30:54;;;;;;;21.47;20.30;;;;;;;9.42;90.62;102898.41;10468387;28;20218;-79
2021/12/19 15:35:56;;;;;;;21.20;19.87;;;;;;;9.48;90.44;102902.66;10473860;28;20211;-79
2021/12/19 15:40:59;;;;;;;20.50;19.30;;;;;;;9.48;90.18;102903.50;10468544;28;20816;-80
2021/12/19 15:46:01;;;;;;;21.30;20.07;;;;;;;9.30;90.15;102862.31;10466615;28;20207;-79
2021/12/19 15:51:04;;;;;;;23.20;21.70;;;;;;;9.47;90.61;102887.56;10467904;28;20261;-80
2021/12/19 15:56:07;;;;;;;24.73;23.03;;;;;;;9.38;89.80;102853.19;10459214;28;20619;-79
2021/12/19 16:01:09;;;;;;;22.87;21.10;;;;;;;9.45;90.26;102868.06;10466623;28;20891;-80
2021/12/19 16:06:11;;;;;;;22.53;21.23;;;;;;;9.44;90.06;102867.19;10470683;28;20225;-79
2021/12/19 16:11:14;;;;;;;21.83;20.33;;;;;;;9.08;90.25;102819.53;10464789;28;20196;-79
2021/12/19 16:16:16;;;;;;;20.93;19.63;;;;;;;9.08;90.13;102802.63;10464532;28;20241;-80
2021/12/19 16:21:18;;;;;;;22.87;21.53;;;;;;;9.42;89.71;102866.38;10463842;28;20597;-79
2021/12/19 16:26:21;;;;;;;22.03;20.37;;;;;;;9.41;90.60;102861.09;10464146;28;20210;-79
2021/12/19 16:31:22;;;;;;;21.23;19.93;;;;;;;9.41;89.77;102864.63;10471124;28;21029;-79
2021/12/19 16:36:24;;;;;;;20.23;19.13;;;;;;;9.38;90.00;102856.75;10467405;28;21559;-79
2021/12/19 16:41:41;;;;;;;21.43;19.47;;;;;;;9.37;89.96;102854.13;10465389;28;20227;-79
2021/12/19 16:46:44;;;;;;;20.60;19.20;;;;;;;9.29;90.88;102838.41;10465189;28;20211;-80
2021/12/19 16:51:46;;;;;;;21.00;19.60;;;;;;;9.14;90.20;102807.78;10465893;28;20339;-80
2021/12/19 16:56:50;;;;;;;20.70;19.40;;;;;;;9.34;90.61;102844.41;10466118;28;20770;-80
2021/12/19 17:01:54;;;;;;;21.10;19.67;;;;;;;9.19;89.63;102821.81;10470430;28;20233;-79
2021/12/19 17:06:55;;;;;;;21.13;19.70;;;;;;;9.28;90.24;102834.84;10470808;28;20218;-79
2021/12/19 17:12:02;;;;;;;21.07;19.57;;;;;;;9.35;89.72;102841.69;10468180;28;20298;-80
2021/12/19 17:17:05;;;;;;;21.23;19.73;;;;;;;9.32;90.19;102841.81;10472232;28;20212;-79
2021/12/19 17:22:06;;;;;;;20.37;19.27;;;;;;;9.30;89.31;102834.78;10468739;28;20603;-79
2021/12/19 17:27:10;;;;;;;21.87;20.27;;;;;;;9.24;89.95;102822.53;10468492;28;20219;-80
2021/12/19 17:32:12;;;;;;;21.97;20.27;;;;;;;9.30;89.21;102827.66;10473657;28;20228;-79
2021/12/19 17:37:13;;;;;;;21.97;20.47;;;;;;;9.31;89.21;102829.41;10472899;28;20211;-79
2021/12/19 17:42:17;;;;;;;840.03;570.57;;;;;;;9.15;89.13;102812.19;10468781;28;20228;-80
2021/12/19 17:47:22;;;;;;;1052.20;698.80;;;;;;;9.29;89.07;102841.91;10467266;28;20206;-80
2021/12/19 17:52:24;;;;;;;22.47;20.57;;;;;;;8.82;89.59;102752.91;10475274;28;20284;-80
2021/12/19 17:57:27;;;;;;;22.47;20.80;;;;;;;9.29;89.68;102833.91;10474917;28;20763;-79
2021/12/19 18:02:28;;;;;;;23.00;21.17;;;;;;;9.30;89.24;102824.13;10472542;28;20230;-79
2021/12/19 18:07:31;;;;;;;23.03;21.03;;;;;;;9.29;89.62;102827.72;10472247;28;20218;-79
2021/12/19 18:12:34;;;;;;;21.30;19.50;;;;;;;9.06;89.82;102783.16;10465689;28;20207;-80
2021/12/19 18:17:36;;;;;;;1090.97;701.13;;;;;;;9.12;90.05;102797.16;10466446;28;20203;-79
2021/12/19 18:22:37;;;;;;;21.60;19.83;;;;;;;9.28;90.10;102809.97;10474614;28;20255;-80
2021/12/19 18:27:41;;;;;;;21.67;19.93;;;;;;;9.08;89.44;102768.88;10469049;28;20211;-79
2021/12/19 18:32:44;;;;;;;21.47;19.87;;;;;;;9.30;90.01;102803.66;10468682;28;20230;-80
2021/12/19 18:37:46;;;;;;;22.87;21.00;;;;;;;9.31;89.07;102799.22;10464617;28;20741;-79
2021/12/19 18:42:54;;;;;;;22.07;20.27;;;;;;;9.29;89.07;102793.91;10464167;28;21030;-79
2021/12/19 18:48:05;;;;;;;22.00;20.37;;;;;;;9.30;89.63;102789.44;10466819;28;20203;-79
2021/12/19 18:53:14;;;;;;;22.63;20.80;;;;;;;9.13;89.10;102761.56;10475866;28;20213;-80
2021/12/19 18:58:22;;;;;;;22.50;20.50;;;;;;;9.12;89.26;102751.84;10471339;28;20222;-81
2021/12/19 19:03:39;;;;;;;21.57;19.83;;;;;;;9.12;89.29;102753.66;10471566;28;20306;-80
2021/12/19 19:08:40;;;;;;;21.60;20.07;;;;;;;9.32;88.93;102793.84;10468095;28;20796;-81
2021/12/19 19:13:44;;;;;;;24.10;21.77;;;;;;;9.18;88.60;102761.44;10466472;28;20689;-80
2021/12/19 19:18:45;;;;;;;22.60;20.80;;;;;;;9.20;88.64;102764.03;10472928;28;20231;-80
2021/12/19 19:23:47;;;;;;;21.43;19.80;;;;;;;9.33;88.64;102789.34;10468086;28;20218;-80
2021/12/19 19:28:50;;;;;;;21.53;19.57;;;;;;;9.16;88.53;102761.47;10467843;28;20234;-81
2021/12/19 19:33:52;;;;;;;22.00;20.00;;;;;;;9.09;88.45;102735.09;10471435;28;20227;-80
2021/12/19 19:39:08;;;;;;;22.00;19.93;;;;;;;9.36;88.45;102799.91;10472489;28;20215;-80
2021/12/19 19:44:37;;;;;;;21.57;19.33;;;;;;;9.33;87.88;102781.34;10468327;28;20922;-80
2021/12/19 19:49:40;;;;;;;21.63;19.90;;;;;;;9.33;88.24;102776.03;10466119;28;20227;-80
2021/12/19 19:54:41;;;;;;;21.07;19.40;;;;;;;8.99;88.80;102726.53;10460780;28;20310;-80
2021/12/19 19:59:44;;;;;;;21.00;19.40;;;;;;;9.13;88.90;102737.56;10462916;28;20231;-80
2021/12/19 20:04:46;;;;;;;22.43;20.47;;;;;;;9.15;87.88;102749.09;10468174;28;20609;-81
2021/12/19 20:09:48;;;;;;;22.47;20.50;;;;;;;9.34;88.52;102786.66;10468904;28;20206;-81
2021/12/19 20:14:51;;;;;;;21.67;19.73;;;;;;;9.22;88.11;102749.72;10469803;28;20218;-81
2021/12/19 20:19:53;;;;;;;22.00;20.23;;;;;;;9.12;88.52;102729.66;10469578;28;20226;-81
2021/12/19 20:24:55;;;;;;;21.60;19.77;;;;;;;8.02;88.07;102566.44;10473988;28;20204;-81
2021/12/19 20:29:59;;;;;;;21.50;20.00;;;;;;;9.37;88.78;102785.66;10462753;28;20230;-80
2021/12/19 20:35:00;;;;;;;22.30;19.97;;;;;;;9.34;88.38;102780.41;10460186;28;20837;-80
2021/12/19 20:40:03;;;;;;;21.00;19.20;;;;;;;9.31;88.65;102780.53;10462399;28;20228;-80
2021/12/19 20:45:09;;;;;;;22.30;20.27;;;;;;;9.30;89.57;102774.31;10469323;28;20200;-80
2021/12/19 20:50:15;;;;;;;22.33;20.73;;;;;;;9.10;89.17;102760.84;10471056;28;20203;-80
2021/12/19 20:55:16;;;;;;;21.60;20.33;;;;;;;9.14;90.16;102754.47;10472536;28;20200;-80
2021/12/19 21:00:20;;;;;;;20.50;19.00;;;;;;;9.15;90.02;102749.09;10474300;28;20223;-80
2021/12/19 21:05:22;;;;;;;20.13;18.93;;;;;;;9.27;89.33;102774.44;10480086;28;20217;-80
2021/12/19 21:10:24;;;;;;;20.57;18.93;;;;;;;9.07;89.41;102750.25;10478876;28;20214;-79
2021/12/19 21:20:46;;;;;;;20.13;18.83;;;;;;;9.28;89.86;102785.97;10444180;28;20771;-80
2021/12/19 21:25:47;;;;;;;19.47;18.37;;;;;;;8.96;90.11;102747.97;10472674;28;20550;-79
2021/12/19 21:30:51;;;;;;;20.10;19.00;;;;;;;9.26;89.84;102771.81;10470429;28;20230;-80
2021/12/19 21:38:46;;;;;;;19.50;18.60;;;;;;;9.13;90.14;102764.22;10469120;28;20540;-80
2021/12/19 21:41:22;;;;;;;19.53;18.53;;;;;;;9.10;90.45;102763.50;10473004;28;20782;-80
2021/12/19 21:46:26;;;;;;;19.80;18.50;;;;;;;8.87;89.86;102730.50;10470127;28;20222;-80
2021/12/19 21:51:28;;;;;;;19.67;18.57;;;;;;;9.12;90.00;102780.31;10470450;28;20310;-81
2021/12/19 21:56:30;;;;;;;19.40;18.30;;;;;;;8.87;90.57;102734.94;10472250;28;20260;-81
2021/12/19 22:01:34;;;;;;;19.23;18.30;;;;;;;9.10;90.13;102779.50;10467054;28;20719;-80
2021/12/19 22:06:36;;;;;;;19.40;18.37;;;;;;;9.10;91.36;102779.50;10464029;28;20747;-80
2021/12/19 22:11:40;;;;;;;20.00;18.90;;;;;;;9.10;91.06;102759.03;10469964;28;20202;-80
2021/12/19 22:16:44;;;;;;;19.80;18.80;;;;;;;9.12;90.97;102780.31;10472856;28;20215;-80
2021/12/19 22:21:45;;;;;;;19.63;18.63;;;;;;;9.02;90.02;102744.22;10464732;28;20231;-80
2021/12/19 22:26:51;;;;;;;19.60;18.57;;;;;;;8.73;90.15;102684.78;10470101;28;20222;-79
2021/12/19 22:31:54;;;;;;;20.27;19.20;;;;;;;9.12;90.22;102761.66;10464279;28;20235;-80
2021/12/19 22:36:56;;;;;;;19.80;18.60;;;;;;;9.12;89.84;102735.00;10466048;28;20591;-80
2021/12/19 22:41:58;;;;;;;19.73;18.77;;;;;;;9.11;90.86;102763.41;10473622;28;20230;-80
2021/12/19 22:47:03;;;;;;;1010.80;600.00;;;;;;;8.95;89.90;102719.59;10463323;28;20696;-80
2021/12/19 22:52:07;;;;;;;19.43;18.27;;;;;;;9.11;90.77;102739.44;10470792;28;20268;-80
2021/12/19 22:57:09;;;;;;;19.67;18.57;;;;;;;9.12;89.83;102733.19;10471677;28;20222;-80
2021/12/19 23:02:12;;;;;;;1063.37;655.17;;;;;;;7.26;89.74;102456.31;10466946;28;20235;-80
2021/12/19 23:07:15;;;;;;;1140.67;759.60;;;;;;;9.03;90.32;102733.50;10472907;28;20246;-80
2021/12/19 23:12:20;;;;;;;1139.13;755.53;;;;;;;9.02;90.78;102755.72;10473513;28;20202;-80
2021/12/19 23:17:51;;;;;;;1135.37;741.43;;;;;;;8.53;90.12;102670.38;10475400;28;20202;-81
2021/12/19 23:22:45;;;;;;;1210.80;814.80;;;;;;;8.46;90.19;102628.03;10473147;28;20256;-81
2021/12/19 23:27:47;;;;;;;1144.33;745.37;;;;;;;9.05;90.98;102730.78;10474374;28;20203;-81
2021/12/19 23:33:08;;;;;;;19.07;18.00;;;;;;;8.94;89.70;102712.50;10474626;28;20235;-80
2021/12/19 23:38:24;;;;;;;19.90;18.77;;;;;;;9.07;89.70;102729.81;10474113;28;20253;-80
2021/12/19 23:48:46;;;;;;;19.80;18.83;;;;;;;9.02;89.69;102714.88;10469766;28;20191;-80
2021/12/19 23:53:47;;;;;;;20.00;18.73;;;;;;;8.76;90.03;102672.25;10469761;28;20329;-79
2021/12/19 23:58:49;;;;;;;19.50;18.40;;;;;;;9.07;90.40;102721.81;10467182;28;20541;-80
